sensor_id;sensor_type;location;lat;lon;timestamp;pressure;altitude;pressure_sealevel;temperature;humidity
4133;BME280;2080;51.038;7.008;2023-01-29T00:01:52;79192.25;;;-142.53;100.00
4133;BME280;2080;51.038;7.008;2023-01-29T00:04:18;79207.81;;;-142.53;100.00
4133;BME280;2080;51.038;7.008;2023-01-29T00:06:43;79211.69;;;-142.53;100.00
4133;BME280;2080;51.038;7.008;2023-01-29T00:09:10;79200.03;;;-142.53;100.00
4133;BME280;2080;51.038;7.008;2023-01-29T00:11:35;79194.19;;;-142.53;100.00
4133;BME280;2080;51.038;7.008;2023-01-29T00:14:00;79180.59;;;-142.53;100.00
4133;BME280;2080;51.038;7.008;2023-01-29T00:16:26;79194.19;;;-142.53;100.00
4133;BME280;2080;51.038;7.008;2023-01-29T00:18:51;79192.25;;;-142.53;100.00
4133;BME280;2080;51.038;7.008;2023-01-29T00:21:18;79153.38;;;-142.53;100.00
4133;BME280;2080;51.038;7.008;2023-01-29T00:23:45;79145.59;;;-142.53;100.00
4133;BME280;2080;51.038;7.008;2023-01-29T00:26:13;79149.47;;;-142.53;100.00
4133;BME280;2080;51.038;7.008;2023-01-29T00:28:39;79188.38;;;-142.53;100.00
4133;BME280;2080;51.038;7.008;2023-01-29T00:31:17;79196.13;;;-142.53;100.00
4133;BME280;2080;51.038;7.008;2023-01-29T00:33:46;79184.47;;;-142.53;100.00
4133;BME280;2080;51.038;7.008;2023-01-29T00:36:15;79192.25;;;-142.53;100.00
4133;BME280;2080;51.038;7.008;2023-01-29T00:38:43;79180.59;;;-142.53;100.00
4133;BME280;2080;51.038;7.008;2023-01-29T00:41:12;79176.69;;;-142.53;100.00
4133;BME280;2080;51.038;7.008;2023-01-29T00:43:57;79182.53;;;-142.53;100.00
4133;BME280;2080;51.038;7.008;2023-01-29T00:46:45;79176.69;;;-142.53;100.00
4133;BME280;2080;51.038;7.008;2023-01-29T00:49:14;79161.16;;;-142.53;100.00
4133;BME280;2080;51.038;7.008;2023-01-29T00:51:40;79168.94;;;-142.53;100.00
4133;BME280;2080;51.038;7.008;2023-01-29T00:54:05;79165.03;;;-142.53;100.00
4133;BME280;2080;51.038;7.008;2023-01-29T00:56:33;79165.03;;;-142.53;100.00
4133;BME280;2080;51.038;7.008;2023-01-29T00:58:59;79172.81;;;-142.53;100.00
4133;BME280;2080;51.038;7.008;2023-01-29T01:01:24;79176.69;;;-142.53;100.00
4133;BME280;2080;51.038;7.008;2023-01-29T01:04:11;79172.81;;;-142.53;100.00
4133;BME280;2080;51.038;7.008;2023-01-29T01:06:38;79180.59;;;-142.53;100.00
4133;BME280;2080;51.038;7.008;2023-01-29T01:09:08;79188.38;;;-142.53;100.00
4133;BME280;2080;51.038;7.008;2023-01-29T01:11:52;79176.69;;;-142.53;100.00
4133;BME280;2080;51.038;7.008;2023-01-29T01:14:19;79176.69;;;-142.53;100.00
4133;BME280;2080;51.038;7.008;2023-01-29T01:16:47;79172.81;;;-142.53;100.00
4133;BME280;2080;51.038;7.008;2023-01-29T01:19:14;79163.09;;;-142.53;100.00
4133;BME280;2080;51.038;7.008;2023-01-29T01:21:39;79157.25;;;-142.53;100.00
4133;BME280;2080;51.038;7.008;2023-01-29T01:24:11;79157.25;;;-142.53;100.00
4133;BME280;2080;51.038;7.008;2023-01-29T01:26:37;79161.16;;;-142.53;100.00
4133;BME280;2080;51.038;7.008;2023-01-29T01:29:02;79168.94;;;-142.53;100.00
4133;BME280;2080;51.038;7.008;2023-01-29T01:31:28;79180.59;;;-142.53;100.00
4133;BME280;2080;51.038;7.008;2023-01-29T01:33:55;79182.53;;;-142.53;100.00
4133;BME280;2080;51.038;7.008;2023-01-29T01:36:21;79194.19;;;-142.53;100.00
4133;BME280;2080;51.038;7.008;2023-01-29T01:38:48;79192.25;;;-142.53;100.00
4133;BME280;2080;51.038;7.008;2023-01-29T01:41:21;79200.03;;;-142.53;100.00
4133;BME280;2080;51.038;7.008;2023-01-29T01:43:57;79194.19;;;-142.53;100.00
4133;BME280;2080;51.038;7.008;2023-01-29T01:46:24;79194.19;;;-142.53;100.00
4133;BME280;2080;51.038;7.008;2023-01-29T01:51:30;79180.59;;;-142.53;100.00
4133;BME280;2080;51.038;7.008;2023-01-29T01:54:02;79190.31;;;-142.53;100.00
4133;BME280;2080;51.038;7.008;2023-01-29T01:56:33;79196.13;;;-142.53;100.00
4133;BME280;2080;51.038;7.008;2023-01-29T01:59:10;79205.84;;;-142.53;100.00
4133;BME280;2080;51.038;7.008;2023-01-29T02:01:36;79190.31;;;-142.53;100.00
4133;BME280;2080;51.038;7.008;2023-01-29T02:04:09;79176.69;;;-142.53;100.00
4133;BME280;2080;51.038;7.008;2023-01-29T02:06:57;79184.47;;;-142.53;100.00
4133;BME280;2080;51.038;7.008;2023-01-29T02:09:48;79194.19;;;-142.53;100.00
4133;BME280;2080;51.038;7.008;2023-01-29T02:12:15;79207.81;;;-142.53;100.00
4133;BME280;2080;51.038;7.008;2023-01-29T02:14:42;79213.63;;;-142.53;100.00
4133;BME280;2080;51.038;7.008;2023-01-29T02:17:14;79238.91;;;-142.53;100.00
4133;BME280;2080;51.038;7.008;2023-01-29T02:19:49;79238.91;;;-142.53;100.00
4133;BME280;2080;51.038;7.008;2023-01-29T02:22:50;79238.91;;;-142.53;100.00
4133;BME280;2080;51.038;7.008;2023-01-29T02:30:33;79231.13;;;-142.53;100.00
4133;BME280;2080;51.038;7.008;2023-01-29T02:33:05;79235.00;;;-142.53;100.00
4133;BME280;2080;51.038;7.008;2023-01-29T02:35:56;79246.69;;;-142.53;100.00
4133;BME280;2080;51.038;7.008;2023-01-29T02:38:36;79258.34;;;-142.53;100.00
4133;BME280;2080;51.038;7.008;2023-01-29T02:43:45;79244.75;;;-142.53;100.00
4133;BME280;2080;51.038;7.008;2023-01-29T02:46:34;79254.47;;;-142.53;100.00
4133;BME280;2080;51.038;7.008;2023-01-29T02:49:03;79264.19;;;-142.53;100.00
4133;BME280;2080;51.038;7.008;2023-01-29T02:51:42;79262.22;;;-142.53;100.00
4133;BME280;2080;51.038;7.008;2023-01-29T02:54:19;79258.34;;;-142.53;100.00
4133;BME280;2080;51.038;7.008;2023-01-29T02:56:55;79266.13;;;-142.53;100.00
4133;BME280;2080;51.038;7.008;2023-01-29T02:59:30;79291.38;;;-142.53;100.00
4133;BME280;2080;51.038;7.008;2023-01-29T03:02:03;79297.22;;;-142.53;100.00
4133;BME280;2080;51.038;7.008;2023-01-29T03:04:35;79297.22;;;-142.53;100.00
4133;BME280;2080;51.038;7.008;2023-01-29T03:07:09;79301.13;;;-142.53;100.00
4133;BME280;2080;51.038;7.008;2023-01-29T03:09:58;79308.88;;;-142.53;100.00
4133;BME280;2080;51.038;7.008;2023-01-29T03:12:27;79312.78;;;-142.53;100.00
4133;BME280;2080;51.038;7.008;2023-01-29T03:14:59;79332.22;;;-142.53;100.00
4133;BME280;2080;51.038;7.008;2023-01-29T03:17:46;79328.31;;;-142.53;100.00
4133;BME280;2080;51.038;7.008;2023-01-29T03:20:17;79303.06;;;-142.53;100.00
4133;BME280;2080;51.038;7.008;2023-01-29T03:22:52;79297.22;;;-142.53;100.00
4133;BME280;2080;51.038;7.008;2023-01-29T03:25:23;79297.22;;;-142.53;100.00
4133;BME280;2080;51.038;7.008;2023-01-29T03:28:11;79301.13;;;-142.53;100.00
4133;BME280;2080;51.038;7.008;2023-01-29T03:31:04;79285.56;;;-142.53;100.00
4133;BME280;2080;51.038;7.008;2023-01-29T03:33:51;79293.34;;;-142.53;100.00
4133;BME280;2080;51.038;7.008;2023-01-29T03:36:22;79297.22;;;-142.53;100.00
4133;BME280;2080;51.038;7.008;2023-01-29T03:38:51;79297.22;;;-142.53;100.00
4133;BME280;2080;51.038;7.008;2023-01-29T03:41:32;79310.84;;;-142.53;100.00
4133;BME280;2080;51.038;7.008;2023-01-29T03:46:55;79312.78;;;-142.53;100.00
4133;BME280;2080;51.038;7.008;2023-01-29T03:49:33;79301.13;;;-142.53;100.00
4133;BME280;2080;51.038;7.008;2023-01-29T03:52:18;79308.88;;;-142.53;100.00
4133;BME280;2080;51.038;7.008;2023-01-29T03:57:38;79301.13;;;-142.53;100.00
4133;BME280;2080;51.038;7.008;2023-01-29T04:03:28;79285.56;;;-142.53;100.00
4133;BME280;2080;51.038;7.008;2023-01-29T04:06:10;79289.44;;;-142.53;100.00
4133;BME280;2080;51.038;7.008;2023-01-29T04:08:47;79285.56;;;-142.53;100.00
4133;BME280;2080;51.038;7.008;2023-01-29T04:11:17;79283.63;;;-142.53;100.00
4133;BME280;2080;51.038;7.008;2023-01-29T04:13:45;79297.22;;;-142.53;100.00
4133;BME280;2080;51.038;7.008;2023-01-29T04:16:17;79293.34;;;-142.53;100.00
4133;BME280;2080;51.038;7.008;2023-01-29T04:18:47;79277.78;;;-142.53;100.00
4133;BME280;2080;51.038;7.008;2023-01-29T04:21:15;79281.66;;;-142.53;100.00
4133;BME280;2080;51.038;7.008;2023-01-29T04:23:44;79293.34;;;-142.53;100.00
4133;BME280;2080;51.038;7.008;2023-01-29T04:34:26;79266.13;;;-142.53;100.00
4133;BME280;2080;51.038;7.008;2023-01-29T04:50:22;79266.13;;;-142.53;100.00
4133;BME280;2080;51.038;7.008;2023-01-29T04:58:37;79248.63;;;-142.53;100.00
4133;BME280;2080;51.038;7.008;2023-01-29T05:01:06;79235.00;;;-142.53;100.00
4133;BME280;2080;51.038;7.008;2023-01-29T05:03:35;79223.34;;;-142.53;100.00
4133;BME280;2080;51.038;7.008;2023-01-29T05:06:03;79215.56;;;-142.53;100.00
4133;BME280;2080;51.038;7.008;2023-01-29T05:08:32;79215.56;;;-142.53;100.00
4133;BME280;2080;51.038;7.008;2023-01-29T05:10:58;79209.75;;;-142.53;100.00
4133;BME280;2080;51.038;7.008;2023-01-29T05:13:29;79192.25;;;-142.53;100.00
4133;BME280;2080;51.038;7.008;2023-01-29T05:16:08;79190.31;;;-142.53;100.00
4133;BME280;2080;51.038;7.008;2023-01-29T05:18:34;79192.25;;;-142.53;100.00
4133;BME280;2080;51.038;7.008;2023-01-29T05:21:06;79207.81;;;-142.53;100.00
4133;BME280;2080;51.038;7.008;2023-01-29T05:23:33;79207.81;;;-142.53;100.00
4133;BME280;2080;51.038;7.008;2023-01-29T05:26:01;79200.03;;;-142.53;100.00
4133;BME280;2080;51.038;7.008;2023-01-29T05:28:26;79201.97;;;-142.53;100.00
4133;BME280;2080;51.038;7.008;2023-01-29T05:30:53;79184.47;;;-142.53;100.00
4133;BME280;2080;51.038;7.008;2023-01-29T05:33:27;79172.81;;;-142.53;100.00
4133;BME280;2080;51.038;7.008;2023-01-29T05:35:53;79176.69;;;-142.53;100.00
4133;BME280;2080;51.038;7.008;2023-01-29T05:38:20;79176.69;;;-142.53;100.00
4133;BME280;2080;51.038;7.008;2023-01-29T05:40:45;79188.38;;;-142.53;100.00
4133;BME280;2080;51.038;7.008;2023-01-29T05:43:23;79161.16;;;-142.53;100.00
4133;BME280;2080;51.038;7.008;2023-01-29T05:45:57;79153.38;;;-142.53;100.00
4133;BME280;2080;51.038;7.008;2023-01-29T05:48:23;79153.38;;;-142.53;100.00
4133;BME280;2080;51.038;7.008;2023-01-29T05:50:49;79153.38;;;-142.53;100.00
4133;BME280;2080;51.038;7.008;2023-01-29T05:53:14;79149.47;;;-142.53;100.00
4133;BME280;2080;51.038;7.008;2023-01-29T05:55:43;79141.72;;;-142.53;100.00
4133;BME280;2080;51.038;7.008;2023-01-29T05:58:12;79145.59;;;-142.53;100.00
4133;BME280;2080;51.038;7.008;2023-01-29T06:00:40;79130.03;;;-142.53;100.00
4133;BME280;2080;51.038;7.008;2023-01-29T06:03:06;79126.16;;;-142.53;100.00
4133;BME280;2080;51.038;7.008;2023-01-29T06:05:31;79126.16;;;-142.53;100.00
4133;BME280;2080;51.038;7.008;2023-01-29T06:07:56;79133.94;;;-142.53;100.00
4133;BME280;2080;51.038;7.008;2023-01-29T06:10:24;79130.03;;;-142.53;100.00
4133;BME280;2080;51.038;7.008;2023-01-29T06:12:49;79126.16;;;-142.53;100.00
4133;BME280;2080;51.038;7.008;2023-01-29T06:15:17;79149.47;;;-142.53;100.00
4133;BME280;2080;51.038;7.008;2023-01-29T06:17:45;79137.81;;;-142.53;100.00
4133;BME280;2080;51.038;7.008;2023-01-29T06:20:15;79149.47;;;-142.53;100.00
4133;BME280;2080;51.038;7.008;2023-01-29T06:22:40;79149.47;;;-142.53;100.00
4133;BME280;2080;51.038;7.008;2023-01-29T06:25:06;79137.81;;;-142.53;100.00
4133;BME280;2080;51.038;7.008;2023-01-29T06:27:32;79145.59;;;-142.53;100.00
4133;BME280;2080;51.038;7.008;2023-01-29T06:29:57;79153.38;;;-142.53;100.00
4133;BME280;2080;51.038;7.008;2023-01-29T06:32:22;79161.16;;;-142.53;100.00
4133;BME280;2080;51.038;7.008;2023-01-29T06:34:48;79180.59;;;-142.53;100.00
4133;BME280;2080;51.038;7.008;2023-01-29T06:37:17;79190.31;;;-142.53;100.00
4133;BME280;2080;51.038;7.008;2023-01-29T06:39:42;79196.13;;;-142.53;100.00
4133;BME280;2080;51.038;7.008;2023-01-29T06:42:10;79196.13;;;-142.53;100.00
4133;BME280;2080;51.038;7.008;2023-01-29T06:44:35;79192.25;;;-142.53;100.00
4133;BME280;2080;51.038;7.008;2023-01-29T06:47:01;79211.69;;;-142.53;100.00
4133;BME280;2080;51.038;7.008;2023-01-29T06:49:26;79227.25;;;-142.53;100.00
4133;BME280;2080;51.038;7.008;2023-01-29T06:51:54;79231.13;;;-142.53;100.00
4133;BME280;2080;51.038;7.008;2023-01-29T06:54:19;79231.13;;;-142.53;100.00
4133;BME280;2080;51.038;7.008;2023-01-29T06:56:47;79221.41;;;-142.53;100.00
4133;BME280;2080;51.038;7.008;2023-01-29T06:59:12;79215.56;;;-142.53;100.00
4133;BME280;2080;51.038;7.008;2023-01-29T07:01:40;79219.47;;;-142.53;100.00
4133;BME280;2080;51.038;7.008;2023-01-29T07:04:06;79207.81;;;-142.53;100.00
4133;BME280;2080;51.038;7.008;2023-01-29T07:06:32;79194.19;;;-142.53;100.00
4133;BME280;2080;51.038;7.008;2023-01-29T07:08:57;79178.66;;;-142.53;100.00
4133;BME280;2080;51.038;7.008;2023-01-29T07:11:23;79170.88;;;-142.53;100.00
4133;BME280;2080;51.038;7.008;2023-01-29T07:13:48;79153.38;;;-142.53;100.00
4133;BME280;2080;51.038;7.008;2023-01-29T07:16:16;79106.72;;;-142.53;100.00
4133;BME280;2080;51.038;7.008;2023-01-29T07:18:43;79087.28;;;-142.53;100.00
4133;BME280;2080;51.038;7.008;2023-01-29T07:21:08;79060.06;;;-142.53;100.00
4133;BME280;2080;51.038;7.008;2023-01-29T07:23:34;79044.50;;;-142.53;100.00
4133;BME280;2080;51.038;7.008;2023-01-29T07:26:01;79025.06;;;-142.53;100.00
4133;BME280;2080;51.038;7.008;2023-01-29T07:28:29;79019.25;;;-142.53;100.00
4133;BME280;2080;51.038;7.008;2023-01-29T07:30:58;79001.75;;;-142.53;100.00
4133;BME280;2080;51.038;7.008;2023-01-29T07:33:24;78976.47;;;-142.53;100.00
4133;BME280;2080;51.038;7.008;2023-01-29T07:35:50;78964.81;;;-142.53;100.00
4133;BME280;2080;51.038;7.008;2023-01-29T07:38:18;78943.44;;;-142.53;100.00
4133;BME280;2080;51.038;7.008;2023-01-29T07:40:50;78927.88;;;-142.53;100.00
4133;BME280;2080;51.038;7.008;2023-01-29T07:43:16;78925.94;;;-142.53;100.00
4133;BME280;2080;51.038;7.008;2023-01-29T07:45:43;78924.00;;;-142.53;100.00
4133;BME280;2080;51.038;7.008;2023-01-29T07:48:11;78908.44;;;-142.53;100.00
4133;BME280;2080;51.038;7.008;2023-01-29T07:50:37;78900.69;;;-142.53;100.00
4133;BME280;2080;51.038;7.008;2023-01-29T07:53:03;78877.34;;;-142.53;100.00
4133;BME280;2080;51.038;7.008;2023-01-29T07:55:31;78850.13;;;-142.53;100.00
4133;BME280;2080;51.038;7.008;2023-01-29T07:57:59;78834.59;;;-142.53;100.00
4133;BME280;2080;51.038;7.008;2023-01-29T08:00:24;78826.81;;;-142.53;100.00
4133;BME280;2080;51.038;7.008;2023-01-29T08:02:50;78815.16;;;-142.53;100.00
4133;BME280;2080;51.038;7.008;2023-01-29T08:05:18;78809.31;;;-142.53;100.00
4133;BME280;2080;51.038;7.008;2023-01-29T08:07:43;78795.72;;;-142.53;100.00
4133;BME280;2080;51.038;7.008;2023-01-29T08:10:09;78782.09;;;-142.53;100.00
4133;BME280;2080;51.038;7.008;2023-01-29T08:12:35;78774.34;;;-142.53;100.00
4133;BME280;2080;51.038;7.008;2023-01-29T08:15:03;78772.38;;;-142.53;100.00
4133;BME280;2080;51.038;7.008;2023-01-29T08:17:29;78764.63;;;-142.53;100.00
4133;BME280;2080;51.038;7.008;2023-01-29T08:19:54;78760.72;;;-142.53;100.00
4133;BME280;2080;51.038;7.008;2023-01-29T08:22:22;78776.28;;;-142.53;100.00
4133;BME280;2080;51.038;7.008;2023-01-29T08:24:47;78782.09;;;-142.53;100.00
4133;BME280;2080;51.038;7.008;2023-01-29T08:27:15;78768.50;;;-142.53;100.00
4133;BME280;2080;51.038;7.008;2023-01-29T08:29:40;78749.06;;;-142.53;100.00
4133;BME280;2080;51.038;7.008;2023-01-29T08:32:09;78752.94;;;-142.53;100.00
4133;BME280;2080;51.038;7.008;2023-01-29T08:34:35;78764.63;;;-142.53;100.00
4133;BME280;2080;51.038;7.008;2023-01-29T08:37:00;78756.84;;;-142.53;100.00
4133;BME280;2080;51.038;7.008;2023-01-29T08:39:26;78749.06;;;-142.53;100.00
4133;BME280;2080;51.038;7.008;2023-01-29T08:41:51;78760.72;;;-142.53;100.00
4133;BME280;2080;51.038;7.008;2023-01-29T08:44:16;78751.00;;;-142.53;100.00
4133;BME280;2080;51.038;7.008;2023-01-29T08:46:44;78741.28;;;-142.53;100.00
4133;BME280;2080;51.038;7.008;2023-01-29T08:49:09;78741.28;;;-142.53;100.00
4133;BME280;2080;51.038;7.008;2023-01-29T08:51:35;78721.84;;;-142.53;100.00
4133;BME280;2080;51.038;7.008;2023-01-29T08:54:00;78706.31;;;-142.53;100.00
4133;BME280;2080;51.038;7.008;2023-01-29T08:56:28;78702.41;;;-142.53;100.00
4133;BME280;2080;51.038;7.008;2023-01-29T08:58:53;78700.47;;;-142.53;100.00
4133;BME280;2080;51.038;7.008;2023-01-29T09:01:19;78706.31;;;-142.53;100.00
4133;BME280;2080;51.038;7.008;2023-01-29T09:03:47;78682.97;;;-142.53;100.00
4133;BME280;2080;51.038;7.008;2023-01-29T09:06:16;78679.09;;;-142.53;100.00
4133;BME280;2080;51.038;7.008;2023-01-29T09:08:41;78659.66;;;-142.53;100.00
4133;BME280;2080;51.038;7.008;2023-01-29T09:11:10;78663.53;;;-142.53;100.00
4133;BME280;2080;51.038;7.008;2023-01-29T09:13:37;78648.00;;;-142.53;100.00
4133;BME280;2080;51.038;7.008;2023-01-29T09:16:03;78648.00;;;-142.53;100.00
4133;BME280;2080;51.038;7.008;2023-01-29T09:18:29;78634.41;;;-142.53;100.00
4133;BME280;2080;51.038;7.008;2023-01-29T09:20:56;78622.72;;;-142.53;100.00
4133;BME280;2080;51.038;7.008;2023-01-29T09:23:24;78609.13;;;-142.53;100.00
4133;BME280;2080;51.038;7.008;2023-01-29T09:25:49;78613.00;;;-142.53;100.00
4133;BME280;2080;51.038;7.008;2023-01-29T09:28:17;78607.19;;;-142.53;100.00
4133;BME280;2080;51.038;7.008;2023-01-29T09:30:43;78609.13;;;-142.53;100.00
4133;BME280;2080;51.038;7.008;2023-01-29T09:33:13;78581.91;;;-142.53;100.00
4133;BME280;2080;51.038;7.008;2023-01-29T09:35:40;78560.53;;;-142.53;100.00
4133;BME280;2080;51.038;7.008;2023-01-29T09:38:07;78543.03;;;-142.53;100.00
4133;BME280;2080;51.038;7.008;2023-01-29T09:46:00;78500.28;;;-142.53;100.00
4133;BME280;2080;51.038;7.008;2023-01-29T09:48:33;78508.06;;;-142.53;100.00
4133;BME280;2080;51.038;7.008;2023-01-29T09:51:04;78490.56;;;-142.53;100.00
4133;BME280;2080;51.038;7.008;2023-01-29T09:53:38;78476.97;;;-142.53;100.00
4133;BME280;2080;51.038;7.008;2023-01-29T09:56:10;78441.97;;;-142.53;100.00
4133;BME280;2080;51.038;7.008;2023-01-29T09:58:39;78447.81;;;-142.53;100.00
4133;BME280;2080;51.038;7.008;2023-01-29T10:01:32;78434.22;;;-142.53;100.00
4133;BME280;2080;51.038;7.008;2023-01-29T10:07:19;78410.88;;;-142.53;100.00
4133;BME280;2080;51.038;7.008;2023-01-29T10:12:24;78352.59;;;-142.53;100.00
4133;BME280;2080;51.038;7.008;2023-01-29T10:25:49;78278.72;;;-142.53;100.00
4133;BME280;2080;51.038;7.008;2023-01-29T10:28:44;78278.72;;;-142.53;100.00
4133;BME280;2080;51.038;7.008;2023-01-29T10:31:21;78282.63;;;-142.53;98.97
4133;BME280;2080;51.038;7.008;2023-01-29T10:36:47;78278.72;;;-142.53;93.19
4133;BME280;2080;51.038;7.008;2023-01-29T10:39:20;78302.06;;;-142.53;95.12
4133;BME280;2080;51.038;7.008;2023-01-29T10:42:27;78298.16;;;-142.53;92.80
4133;BME280;2080;51.038;7.008;2023-01-29T10:45:06;78284.56;;;-142.53;93.55
4133;BME280;2080;51.038;7.008;2023-01-29T10:58:54;78302.06;;;-142.53;92.49
4133;BME280;2080;51.038;7.008;2023-01-29T11:01:23;78263.19;;;-142.53;91.61
4133;BME280;2080;51.038;7.008;2023-01-29T11:04:02;78234.03;;;-142.53;90.90
4133;BME280;2080;51.038;7.008;2023-01-29T11:06:34;78212.66;;;-142.53;88.77
4133;BME280;2080;51.038;7.008;2023-01-29T11:09:11;78212.66;;;-142.53;88.01
4133;BME280;2080;51.038;7.008;2023-01-29T11:11:49;78208.78;;;-142.53;88.33
4133;BME280;2080;51.038;7.008;2023-01-29T11:14:24;78181.56;;;-142.53;85.44
4133;BME280;2080;51.038;7.008;2023-01-29T11:16:54;78201.00;;;-142.53;86.26
4133;BME280;2080;51.038;7.008;2023-01-29T11:19:36;78193.22;;;-142.53;87.22
4133;BME280;2080;51.038;7.008;2023-01-29T11:22:02;78185.44;;;-142.53;87.43
4133;BME280;2080;51.038;7.008;2023-01-29T11:24:30;78150.47;;;-142.53;85.44
4133;BME280;2080;51.038;7.008;2023-01-29T11:27:01;78144.63;;;-142.53;85.14
4133;BME280;2080;51.038;7.008;2023-01-29T11:29:41;78164.06;;;-142.53;85.15
4133;BME280;2080;51.038;7.008;2023-01-29T11:37:50;78142.69;;;-142.53;85.69
4133;BME280;2080;51.038;7.008;2023-01-29T11:42:47;78103.84;;;-142.53;84.41
4133;BME280;2080;51.038;7.008;2023-01-29T11:47:48;78092.16;;;-142.53;83.65
4133;BME280;2080;51.038;7.008;2023-01-29T11:50:21;78096.06;;;-142.53;84.43
4133;BME280;2080;51.038;7.008;2023-01-29T11:52:50;78072.75;;;-142.53;83.75
4133;BME280;2080;51.038;7.008;2023-01-29T11:58:11;78064.97;;;-142.53;84.48
4133;BME280;2080;51.038;7.008;2023-01-29T12:00:46;78047.47;;;-142.53;84.35
4133;BME280;2080;51.038;7.008;2023-01-29T12:03:38;78045.53;;;-142.53;82.42
4133;BME280;2080;51.038;7.008;2023-01-29T12:08:42;78041.66;;;-142.53;82.87
4133;BME280;2080;51.038;7.008;2023-01-29T12:11:23;78049.41;;;-142.53;82.63
4133;BME280;2080;51.038;7.008;2023-01-29T12:13:58;78039.69;;;-142.53;83.10
4133;BME280;2080;51.038;7.008;2023-01-29T12:21:48;78022.22;;;-142.53;83.22
4133;BME280;2080;51.038;7.008;2023-01-29T12:27:21;77987.22;;;-142.53;82.48
4133;BME280;2080;51.038;7.008;2023-01-29T12:30:04;77979.47;;;-142.53;81.79
4133;BME280;2080;51.038;7.008;2023-01-29T12:32:45;77971.69;;;-142.53;81.51
4133;BME280;2080;51.038;7.008;2023-01-29T12:38:07;77938.66;;;-142.53;81.59
4133;BME280;2080;51.038;7.008;2023-01-29T12:43:32;77905.63;;;-142.53;81.46
4133;BME280;2080;51.038;7.008;2023-01-29T12:46:00;77897.84;;;-142.53;81.95
4133;BME280;2080;51.038;7.008;2023-01-29T12:51:02;77870.63;;;-142.53;80.72
4133;BME280;2080;51.038;7.008;2023-01-29T12:53:38;77855.09;;;-142.53;79.62
4133;BME280;2080;51.038;7.008;2023-01-29T12:56:11;77870.63;;;-142.53;80.29
4133;BME280;2080;51.038;7.008;2023-01-29T12:58:44;77857.03;;;-142.53;80.85
4133;BME280;2080;51.038;7.008;2023-01-29T13:04:05;77831.78;;;-142.53;78.89
4133;BME280;2080;51.038;7.008;2023-01-29T13:06:41;77835.66;;;-142.53;78.09
4133;BME280;2080;51.038;7.008;2023-01-29T13:09:27;77847.31;;;-142.53;77.98
4133;BME280;2080;51.038;7.008;2023-01-29T13:11:58;77827.88;;;-142.53;77.01
4133;BME280;2080;51.038;7.008;2023-01-29T13:14:39;77814.28;;;-142.53;78.17
4133;BME280;2080;51.038;7.008;2023-01-29T13:17:11;77824.00;;;-142.53;78.70
4133;BME280;2080;51.038;7.008;2023-01-29T13:19:42;77818.19;;;-142.53;78.52
4133;BME280;2080;51.038;7.008;2023-01-29T13:22:27;77808.47;;;-142.53;78.43
4133;BME280;2080;51.038;7.008;2023-01-29T13:24:57;77818.19;;;-142.53;79.71
4133;BME280;2080;51.038;7.008;2023-01-29T13:27:28;77818.19;;;-142.53;79.59
4133;BME280;2080;51.038;7.008;2023-01-29T13:29:55;77812.34;;;-142.53;79.95
4133;BME280;2080;51.038;7.008;2023-01-29T13:32:25;77820.13;;;-142.53;79.79
4133;BME280;2080;51.038;7.008;2023-01-29T13:34:55;77827.88;;;-142.53;79.79
4133;BME280;2080;51.038;7.008;2023-01-29T13:37:38;77835.66;;;-142.53;79.91
4133;BME280;2080;51.038;7.008;2023-01-29T13:40:06;77843.44;;;-142.53;80.49
4133;BME280;2080;51.038;7.008;2023-01-29T13:45:00;77845.38;;;-142.53;80.83
4133;BME280;2080;51.038;7.008;2023-01-29T13:47:30;77843.44;;;-142.53;81.39
4133;BME280;2080;51.038;7.008;2023-01-29T13:50:04;77851.22;;;-142.53;80.86
4133;BME280;2080;51.038;7.008;2023-01-29T13:52:43;77843.44;;;-142.53;81.81
4133;BME280;2080;51.038;7.008;2023-01-29T13:57:50;77851.22;;;-142.53;82.12
4133;BME280;2080;51.038;7.008;2023-01-29T14:02:44;77855.09;;;-142.53;82.60
4133;BME280;2080;51.038;7.008;2023-01-29T14:10:24;77878.41;;;-142.53;82.56
4133;BME280;2080;51.038;7.008;2023-01-29T14:12:52;77893.97;;;-142.53;83.10
4133;BME280;2080;51.038;7.008;2023-01-29T14:15:27;77897.84;;;-142.53;84.68
4133;BME280;2080;51.038;7.008;2023-01-29T14:17:58;77897.84;;;-142.53;84.71
4133;BME280;2080;51.038;7.008;2023-01-29T14:20:37;77901.72;;;-142.53;84.63
4133;BME280;2080;51.038;7.008;2023-01-29T14:23:04;77917.28;;;-142.53;85.26
4133;BME280;2080;51.038;7.008;2023-01-29T14:25:36;77932.81;;;-142.53;84.94
4133;BME280;2080;51.038;7.008;2023-01-29T14:28:14;77930.88;;;-142.53;85.20
4133;BME280;2080;51.038;7.008;2023-01-29T14:30:47;77932.81;;;-142.53;85.68
4133;BME280;2080;51.038;7.008;2023-01-29T14:35:53;77936.72;;;-142.53;86.41
4133;BME280;2080;51.038;7.008;2023-01-29T14:38:24;77938.66;;;-142.53;86.78
4133;BME280;2080;51.038;7.008;2023-01-29T14:41:01;77938.66;;;-142.53;86.88
4133;BME280;2080;51.038;7.008;2023-01-29T14:43:32;77940.59;;;-142.53;86.67
4133;BME280;2080;51.038;7.008;2023-01-29T14:49:02;77944.47;;;-142.53;86.96
4133;BME280;2080;51.038;7.008;2023-01-29T14:51:33;77952.25;;;-142.53;87.33
4133;BME280;2080;51.038;7.008;2023-01-29T14:54:13;77960.03;;;-142.53;87.90
4133;BME280;2080;51.038;7.008;2023-01-29T14:57:02;77952.25;;;-142.53;88.24
4133;BME280;2080;51.038;7.008;2023-01-29T14:59:31;77958.09;;;-142.53;89.04
4133;BME280;2080;51.038;7.008;2023-01-29T15:02:13;77961.97;;;-142.53;89.02
4133;BME280;2080;51.038;7.008;2023-01-29T15:04:45;77958.09;;;-142.53;88.74
4133;BME280;2080;51.038;7.008;2023-01-29T15:07:22;77960.03;;;-142.53;88.34
4133;BME280;2080;51.038;7.008;2023-01-29T15:10:13;77965.84;;;-142.53;88.04
4133;BME280;2080;51.038;7.008;2023-01-29T15:12:58;77967.81;;;-142.53;88.03
4133;BME280;2080;51.038;7.008;2023-01-29T15:18:06;77981.41;;;-142.53;88.69
4133;BME280;2080;51.038;7.008;2023-01-29T15:20:35;77993.06;;;-142.53;89.00
4133;BME280;2080;51.038;7.008;2023-01-29T15:23:01;77993.06;;;-142.53;89.59
4133;BME280;2080;51.038;7.008;2023-01-29T15:25:33;78002.78;;;-142.53;89.81
4133;BME280;2080;51.038;7.008;2023-01-29T15:28:04;78018.31;;;-142.53;90.36
4133;BME280;2080;51.038;7.008;2023-01-29T15:30:34;78020.28;;;-142.53;90.38
4133;BME280;2080;51.038;7.008;2023-01-29T15:33:02;78018.31;;;-142.53;90.57